createdAt,value
2023-07-03T00:00:51.689Z,17.70
2023-07-03T00:03:53.866Z,17.80
2023-07-03T00:06:56.122Z,17.90
2023-07-03T00:09:58.195Z,18.00
2023-07-03T00:13:00.658Z,18.00
2023-07-03T00:16:04.593Z,18.10
2023-07-03T00:19:06.829Z,18.10
2023-07-03T00:22:08.895Z,18.20
2023-07-03T00:25:11.347Z,18.20
2023-07-03T00:28:13.439Z,18.30
2023-07-03T00:31:15.592Z,18.30
2023-07-03T00:34:18.070Z,18.40
2023-07-03T00:37:22.440Z,18.40
2023-07-03T00:40:24.590Z,18.40
2023-07-03T00:43:27.889Z,18.40
2023-07-03T00:46:30.042Z,18.50
2023-07-03T00:49:32.653Z,18.50
2023-07-03T00:52:34.905Z,18.50
2023-07-03T00:55:38.152Z,18.50
2023-07-03T00:58:40.640Z,18.50
2023-07-03T01:01:59.166Z,18.40
2023-07-03T01:05:15.959Z,18.40
2023-07-03T01:08:18.893Z,18.40
2023-07-03T01:11:22.229Z,18.40
2023-07-03T01:14:26.298Z,18.30
2023-07-03T01:17:30.692Z,18.30
2023-07-03T01:20:38.586Z,18.30
2023-07-03T01:24:01.578Z,18.30
2023-07-03T01:27:05.596Z,18.30
2023-07-03T01:30:13.376Z,18.30
2023-07-03T01:33:19.359Z,18.20
2023-07-03T01:36:22.193Z,18.10
2023-07-03T01:39:24.939Z,18.10
2023-07-03T01:42:29.711Z,18.10
2023-07-03T01:45:40.432Z,18.10
2023-07-03T01:48:42.562Z,18.10
2023-07-03T01:52:04.192Z,18.00
2023-07-03T01:55:09.386Z,18.00
2023-07-03T01:58:20.366Z,18.00
2023-07-03T02:01:43.005Z,18.00
2023-07-03T02:04:59.158Z,18.00
2023-07-03T02:08:02.818Z,18.00
2023-07-03T02:11:05.353Z,17.90
2023-07-03T02:14:09.786Z,17.90
2023-07-03T02:17:13.246Z,17.90
2023-07-03T02:20:15.988Z,17.90
2023-07-03T02:23:18.167Z,17.80
2023-07-03T02:26:20.315Z,17.80
2023-07-03T02:29:22.456Z,17.80
2023-07-03T02:32:24.539Z,18.00
2023-07-03T02:35:26.625Z,18.30
2023-07-03T02:38:28.635Z,18.50
2023-07-03T02:41:30.740Z,18.40
2023-07-03T02:44:32.769Z,18.40
2023-07-03T02:47:39.149Z,18.40
2023-07-03T02:50:41.284Z,18.20
2023-07-03T02:53:43.983Z,18.20
2023-07-03T02:56:46.051Z,18.10
2023-07-03T02:59:48.109Z,17.90
2023-07-03T03:02:50.438Z,17.90
2023-07-03T03:05:52.747Z,17.80
2023-07-03T03:08:54.969Z,17.80
2023-07-03T03:11:57.094Z,17.80
2023-07-03T03:14:59.793Z,17.80
2023-07-03T03:18:05.598Z,17.70
2023-07-03T03:21:07.941Z,17.70
2023-07-03T03:24:10.102Z,17.60
2023-07-03T03:27:12.138Z,17.70
2023-07-03T03:30:14.382Z,17.70
2023-07-03T03:33:16.457Z,17.80
2023-07-03T03:36:18.574Z,17.70
2023-07-03T03:39:20.681Z,17.70
2023-07-03T03:42:22.990Z,17.70
2023-07-03T03:45:25.699Z,17.70
2023-07-03T03:48:29.299Z,17.80
2023-07-03T03:51:31.461Z,17.80
2023-07-03T03:54:33.541Z,17.80
2023-07-03T03:57:35.622Z,17.80
2023-07-03T04:00:37.909Z,17.80
2023-07-03T04:03:40.463Z,17.80
2023-07-03T04:06:42.895Z,17.80
2023-07-03T04:09:44.989Z,17.90
2023-07-03T04:12:47.098Z,18.00
2023-07-03T04:16:09.866Z,18.00
2023-07-03T04:19:12.140Z,18.10
2023-07-03T04:22:14.245Z,18.10
2023-07-03T04:25:16.403Z,18.20
2023-07-03T04:28:20.962Z,18.20
2023-07-03T04:31:23.071Z,18.20
2023-07-03T04:34:25.264Z,18.20
2023-07-03T04:37:28.097Z,18.20
2023-07-03T04:40:31.229Z,18.20
2023-07-03T04:43:33.394Z,18.10
2023-07-03T04:46:36.159Z,18.10
2023-07-03T04:49:38.261Z,18.10
2023-07-03T04:52:40.453Z,18.20
2023-07-03T04:55:42.830Z,18.10
2023-07-03T04:58:44.946Z,18.10
2023-07-03T05:01:47.239Z,18.10
2023-07-03T05:04:49.432Z,18.20
2023-07-03T05:07:51.569Z,18.10
2023-07-03T05:10:53.612Z,18.20
2023-07-03T05:13:55.672Z,18.30
2023-07-03T05:16:57.699Z,18.30
2023-07-03T05:19:59.849Z,18.30
2023-07-03T05:23:01.905Z,18.40
2023-07-03T05:26:04.544Z,18.40
2023-07-03T05:29:06.895Z,18.50
2023-07-03T05:32:09.352Z,18.50
2023-07-03T05:35:11.764Z,18.40
2023-07-03T05:38:13.792Z,18.40
2023-07-03T05:41:16.166Z,18.50
2023-07-03T05:44:18.313Z,18.50
2023-07-03T05:47:20.539Z,18.50
2023-07-03T05:50:22.750Z,18.70
2023-07-03T05:53:25.231Z,18.70
2023-07-03T05:56:29.699Z,18.80
2023-07-03T05:59:32.761Z,18.70
2023-07-03T06:02:37.078Z,18.70
2023-07-03T06:05:39.178Z,18.60
2023-07-03T06:08:41.742Z,18.70
2023-07-03T06:11:43.814Z,18.70
2023-07-03T06:14:46.040Z,18.60
2023-07-03T06:17:48.245Z,18.60
2023-07-03T06:20:50.581Z,18.70
2023-07-03T06:23:52.625Z,18.70
2023-07-03T06:26:54.901Z,18.50
2023-07-03T06:29:57.034Z,18.40
2023-07-03T06:32:59.296Z,18.40
2023-07-03T06:36:01.375Z,18.50
2023-07-03T06:39:05.999Z,18.50
2023-07-03T06:42:08.682Z,18.50
2023-07-03T06:45:11.235Z,18.60
2023-07-03T06:48:13.379Z,18.60
2023-07-03T06:51:15.925Z,18.80
2023-07-03T06:54:18.473Z,18.90
2023-07-03T06:57:20.745Z,18.90
2023-07-03T07:00:23.001Z,19.00
2023-07-03T07:03:25.403Z,18.90
2023-07-03T07:06:31.574Z,18.90
2023-07-03T07:09:34.625Z,18.90
2023-07-03T07:12:36.701Z,18.90
2023-07-03T07:15:39.815Z,18.90
2023-07-03T07:18:42.614Z,18.80
2023-07-03T07:21:45.682Z,18.90
2023-07-03T07:24:47.810Z,19.10
2023-07-03T07:27:49.904Z,19.20
2023-07-03T07:30:52.027Z,19.20
2023-07-03T07:33:54.447Z,19.40
2023-07-03T07:36:56.615Z,19.60
2023-07-03T07:39:58.659Z,19.70
2023-07-03T07:43:00.782Z,19.80
2023-07-03T07:46:02.932Z,19.80
2023-07-03T07:49:06.021Z,19.90
2023-07-03T07:52:08.488Z,19.90
2023-07-03T07:55:10.925Z,20.00
2023-07-03T07:58:14.533Z,20.00
2023-07-03T08:01:17.364Z,20.00
2023-07-03T08:04:19.682Z,20.10
2023-07-03T08:07:21.927Z,20.10
2023-07-03T08:10:24.111Z,19.70
2023-07-03T08:13:26.856Z,19.70
2023-07-03T08:16:29.106Z,19.80
2023-07-03T08:19:31.272Z,19.70
2023-07-03T08:22:33.291Z,19.50
2023-07-03T08:25:35.859Z,19.60
2023-07-03T08:28:37.887Z,19.60
2023-07-03T08:31:40.024Z,19.60
2023-07-03T08:38:04.205Z,19.60
2023-07-03T08:41:06.342Z,19.50
2023-07-03T08:44:10.170Z,19.40
2023-07-03T08:47:19.753Z,19.40
2023-07-03T08:50:35.679Z,19.40
2023-07-03T08:53:44.896Z,19.40
2023-07-03T08:56:49.005Z,19.20
2023-07-03T08:59:53.339Z,19.30
2023-07-03T09:03:12.684Z,19.40
2023-07-03T09:06:30.158Z,19.60
2023-07-03T09:09:59.105Z,19.70
2023-07-03T09:13:10.033Z,19.80
2023-07-03T09:16:23.484Z,19.80
2023-07-03T09:19:27.920Z,19.70
2023-07-03T09:22:57.099Z,19.70
2023-07-03T09:26:45.003Z,19.70
2023-07-03T09:29:47.875Z,19.60
2023-07-03T09:32:49.981Z,19.60
2023-07-03T09:35:52.886Z,19.80
2023-07-03T09:38:55.205Z,19.90
2023-07-03T09:42:07.265Z,20.20
2023-07-03T09:45:21.488Z,20.50
2023-07-03T09:48:31.123Z,20.80
2023-07-03T09:51:34.538Z,21.00
2023-07-03T09:54:44.286Z,21.30
2023-07-03T09:57:46.366Z,21.60
2023-07-03T10:00:51.498Z,21.80
2023-07-03T10:07:18.920Z,22.40
2023-07-03T10:13:31.880Z,23.00
2023-07-03T10:16:35.174Z,23.80
2023-07-03T10:19:37.738Z,24.50
2023-07-03T10:22:42.715Z,24.70
2023-07-03T10:25:52.368Z,24.90
2023-07-03T10:28:58.170Z,25.30
2023-07-03T10:32:09.737Z,25.50
2023-07-03T10:35:28.996Z,25.80
2023-07-03T10:38:49.113Z,26.00
2023-07-03T10:42:04.432Z,26.80
2023-07-03T10:45:10.984Z,27.30
2023-07-03T10:48:22.743Z,27.10
2023-07-03T10:51:55.755Z,27.00
2023-07-03T10:55:14.232Z,26.30
2023-07-03T10:58:20.786Z,25.90
2023-07-03T11:01:52.569Z,26.10
2023-07-03T11:05:04.229Z,26.30
2023-07-03T11:08:22.022Z,26.00
2023-07-03T11:11:52.220Z,25.80
2023-07-03T11:15:06.402Z,26.20
2023-07-03T11:25:10.980Z,26.80
2023-07-03T11:28:25.155Z,26.80
2023-07-03T11:31:29.158Z,26.80
2023-07-03T11:40:55.652Z,28.80
2023-07-03T11:44:15.945Z,29.60
2023-07-03T11:47:39.628Z,29.90
2023-07-03T11:50:41.742Z,30.50
2023-07-03T11:53:53.817Z,30.70
2023-07-03T11:57:00.833Z,30.70
2023-07-03T12:00:23.879Z,30.30
2023-07-03T12:03:56.745Z,30.40
2023-07-03T12:06:58.875Z,30.20
2023-07-03T12:10:29.831Z,30.10
2023-07-03T12:13:40.998Z,30.40
2023-07-03T12:16:48.968Z,30.30
2023-07-03T12:20:14.626Z,30.20
2023-07-03T12:23:41.584Z,29.80
2023-07-03T12:26:55.446Z,29.70
2023-07-03T12:29:57.576Z,29.70
2023-07-03T12:33:00.561Z,29.80
2023-07-03T12:36:02.779Z,28.60
2023-07-03T12:39:15.860Z,28.60
2023-07-03T12:42:22.954Z,29.60
2023-07-03T12:45:27.827Z,29.40
2023-07-03T12:48:30.210Z,29.60
2023-07-03T12:51:37.651Z,29.60
2023-07-03T12:54:39.789Z,29.40
2023-07-03T12:57:42.635Z,29.00
2023-07-03T13:00:45.698Z,28.70
2023-07-03T13:03:48.902Z,29.00
2023-07-03T13:06:51.003Z,29.00
2023-07-03T13:09:55.823Z,29.20
2023-07-03T13:13:04.085Z,29.30
2023-07-03T13:16:17.168Z,29.70
2023-07-03T13:19:45.464Z,30.40
2023-07-03T13:22:53.677Z,31.50
2023-07-03T13:25:56.926Z,31.50
2023-07-03T13:29:01.508Z,31.40
2023-07-03T13:32:21.747Z,31.70
2023-07-03T13:35:30.107Z,31.60
2023-07-03T13:38:32.157Z,31.30
2023-07-03T13:41:35.186Z,30.80
2023-07-03T13:44:37.297Z,30.70
2023-07-03T13:47:39.440Z,30.50
2023-07-03T13:50:41.689Z,30.10
2023-07-03T13:53:43.734Z,30.50
2023-07-03T13:56:46.487Z,30.50
2023-07-03T13:59:48.614Z,30.10
2023-07-03T14:02:50.866Z,29.90
2023-07-03T14:05:53.566Z,29.80
2023-07-03T14:08:56.232Z,30.30
2023-07-03T14:11:58.299Z,30.60
2023-07-03T14:15:00.407Z,31.20
2023-07-03T14:18:02.622Z,31.00
2023-07-03T14:21:05.566Z,31.20
2023-07-03T14:24:07.742Z,31.00
2023-07-03T14:27:10.409Z,31.00
2023-07-03T14:30:13.590Z,31.20
2023-07-03T14:33:15.877Z,31.20
2023-07-03T14:36:18.035Z,30.80
2023-07-03T14:39:20.123Z,30.10
2023-07-03T14:42:22.268Z,29.40
2023-07-03T14:45:24.484Z,29.20
2023-07-03T14:48:26.584Z,29.30
2023-07-03T14:51:29.031Z,29.40
2023-07-03T14:54:31.179Z,29.30
2023-07-03T14:57:33.563Z,28.80
2023-07-03T15:00:37.477Z,28.60
2023-07-03T15:03:39.636Z,28.20
2023-07-03T15:06:42.284Z,27.80
2023-07-03T15:09:44.409Z,27.00
2023-07-03T15:12:47.193Z,26.50
2023-07-03T15:15:50.946Z,26.50
2023-07-03T15:18:53.318Z,26.30
2023-07-03T15:21:55.456Z,26.60
2023-07-03T15:24:57.905Z,26.90
2023-07-03T15:27:59.944Z,27.00
2023-07-03T15:31:04.949Z,26.90
2023-07-03T15:34:07.083Z,27.10
2023-07-03T15:37:09.303Z,27.40
2023-07-03T15:40:11.911Z,27.30
2023-07-03T15:43:14.038Z,27.00
2023-07-03T15:46:17.602Z,26.70
2023-07-03T15:49:19.673Z,26.60
2023-07-03T15:52:21.695Z,26.20
2023-07-03T15:55:23.820Z,25.80
2023-07-03T15:58:27.000Z,25.60
2023-07-03T16:01:30.380Z,25.50
2023-07-03T16:04:32.586Z,25.60
2023-07-03T16:07:36.014Z,25.80
2023-07-03T16:10:39.656Z,26.00
2023-07-03T16:13:42.313Z,26.00
2023-07-03T16:16:44.913Z,26.00
2023-07-03T16:20:10.425Z,25.60
2023-07-03T16:23:12.963Z,25.30
2023-07-03T16:26:15.469Z,25.10
2023-07-03T16:29:18.021Z,25.00
2023-07-03T16:32:20.128Z,25.00
2023-07-03T16:35:22.294Z,24.90
2023-07-03T16:38:24.556Z,25.00
2023-07-03T16:41:29.137Z,24.90
2023-07-03T16:44:31.193Z,25.00
2023-07-03T16:47:33.531Z,24.90
2023-07-03T16:50:35.718Z,25.00
2023-07-03T16:53:41.674Z,24.90
2023-07-03T16:56:44.009Z,24.80
2023-07-03T16:59:46.034Z,24.60
2023-07-03T17:02:48.429Z,24.50
2023-07-03T17:05:51.001Z,24.50
2023-07-03T17:08:55.582Z,24.40
2023-07-03T17:11:58.535Z,24.30
2023-07-03T17:15:00.590Z,24.10
2023-07-03T17:18:03.253Z,24.00
2023-07-03T17:21:05.709Z,23.80
2023-07-03T17:24:08.466Z,23.80
2023-07-03T17:27:10.897Z,23.80
2023-07-03T17:30:13.509Z,23.70
2023-07-03T17:33:15.691Z,23.60
2023-07-03T17:36:18.321Z,23.40
2023-07-03T17:39:20.491Z,23.30
2023-07-03T17:42:23.109Z,23.10
2023-07-03T17:45:26.865Z,23.00
2023-07-03T17:48:29.320Z,22.80
2023-07-03T17:51:35.505Z,22.70
2023-07-03T17:54:38.613Z,22.60
2023-07-03T17:57:40.998Z,22.50
2023-07-03T18:00:43.534Z,22.40
2023-07-03T18:03:47.849Z,22.30
2023-07-03T18:06:50.118Z,22.20
2023-07-03T18:09:52.693Z,22.10
2023-07-03T18:12:55.311Z,22.00
2023-07-03T18:15:58.019Z,21.90
2023-07-03T18:19:01.015Z,21.90
2023-07-03T18:22:03.386Z,21.80
2023-07-03T18:25:06.910Z,21.70
2023-07-03T18:28:10.161Z,21.60
2023-07-03T18:31:12.660Z,21.50
2023-07-03T18:34:15.174Z,21.30
2023-07-03T18:37:18.170Z,21.10
2023-07-03T18:40:21.368Z,21.00
2023-07-03T18:43:24.699Z,20.90
2023-07-03T18:46:27.368Z,20.80
2023-07-03T18:49:30.428Z,20.60
2023-07-03T18:52:32.795Z,20.50
2023-07-03T18:55:35.081Z,20.50
2023-07-03T18:58:37.955Z,20.40
2023-07-03T19:01:42.132Z,20.40
2023-07-03T19:04:47.064Z,20.30
2023-07-03T19:07:49.725Z,20.20
2023-07-03T19:10:52.371Z,20.10
2023-07-03T19:13:54.733Z,20.00
2023-07-03T19:16:58.066Z,20.10
2023-07-03T19:20:01.146Z,20.00
2023-07-03T19:23:04.615Z,20.00
2023-07-03T19:26:08.828Z,20.00
2023-07-03T19:29:12.764Z,20.00
2023-07-03T19:32:15.090Z,19.90
2023-07-03T19:35:17.872Z,19.90
2023-07-03T19:38:20.573Z,19.80
2023-07-03T19:41:23.131Z,19.80
2023-07-03T19:44:27.184Z,19.70
2023-07-03T19:47:29.758Z,19.60
2023-07-03T19:50:33.942Z,19.50
2023-07-03T19:53:36.656Z,19.50
2023-07-03T19:56:39.765Z,19.50
2023-07-03T19:59:41.987Z,19.50
2023-07-03T20:02:45.657Z,19.40
2023-07-03T20:05:48.889Z,19.40
2023-07-03T20:08:55.036Z,19.40
2023-07-03T20:11:57.709Z,19.40
2023-07-03T20:15:00.814Z,19.40
2023-07-03T20:18:03.024Z,19.40
2023-07-03T20:21:06.878Z,19.30
2023-07-03T20:24:10.357Z,19.30
2023-07-03T20:27:12.925Z,19.30
2023-07-03T20:30:15.625Z,19.20
2023-07-03T20:33:18.482Z,19.20
2023-07-03T20:36:21.128Z,19.10
2023-07-03T20:39:23.618Z,19.20
2023-07-03T20:42:28.455Z,19.20
2023-07-03T20:45:31.084Z,19.10
2023-07-03T20:48:33.630Z,19.00
2023-07-03T20:51:36.682Z,19.00
2023-07-03T20:54:44.386Z,19.00
2023-07-03T20:57:46.653Z,19.00
2023-07-03T21:00:48.696Z,19.00
2023-07-03T21:03:51.473Z,18.90
2023-07-03T21:06:56.437Z,18.90
2023-07-03T21:09:58.670Z,18.90
2023-07-03T21:13:00.827Z,18.90
2023-07-03T21:16:03.246Z,18.90
2023-07-03T21:19:09.585Z,18.90
2023-07-03T21:22:11.739Z,18.90
2023-07-03T21:25:14.058Z,18.90
2023-07-03T21:28:16.127Z,18.90
2023-07-03T21:31:20.917Z,18.90
2023-07-03T21:34:23.032Z,19.00
2023-07-03T21:37:25.975Z,19.00
2023-07-03T21:40:29.466Z,19.00
2023-07-03T21:43:32.368Z,19.00
2023-07-03T21:46:34.541Z,19.00
2023-07-03T21:49:36.702Z,19.00
2023-07-03T21:52:38.785Z,19.00
2023-07-03T21:55:40.858Z,19.00
2023-07-03T21:58:44.492Z,19.00
2023-07-03T22:01:51.526Z,19.00
2023-07-03T22:04:54.582Z,19.00
2023-07-03T22:07:56.703Z,19.00
2023-07-03T22:10:58.814Z,19.00
2023-07-03T22:14:01.523Z,18.90
2023-07-03T22:17:03.856Z,18.90
2023-07-03T22:20:10.094Z,18.90
2023-07-03T22:23:12.313Z,18.90
2023-07-03T22:26:14.789Z,18.90
2023-07-03T22:29:17.679Z,18.80
2023-07-03T22:32:20.018Z,18.90
2023-07-03T22:35:22.115Z,18.90
2023-07-03T22:38:24.400Z,19.00
2023-07-03T22:41:26.549Z,19.00
2023-07-03T22:44:28.669Z,18.90
2023-07-03T22:47:31.369Z,18.90
2023-07-03T22:50:34.183Z,18.90
2023-07-03T22:53:37.989Z,18.90
2023-07-03T22:56:40.108Z,18.90
2023-07-03T22:59:42.224Z,18.90
2023-07-03T23:02:45.056Z,18.90
2023-07-03T23:05:47.256Z,19.00
2023-07-03T23:08:50.660Z,19.00
2023-07-03T23:11:53.292Z,19.00
2023-07-03T23:14:56.620Z,19.00
2023-07-03T23:17:59.709Z,19.00
2023-07-03T23:21:10.310Z,19.00
2023-07-03T23:24:12.475Z,19.00
2023-07-03T23:27:15.537Z,19.00
2023-07-03T23:30:18.042Z,19.00
2023-07-03T23:33:21.689Z,19.00
2023-07-03T23:36:23.979Z,19.00
2023-07-03T23:39:27.466Z,19.00
2023-07-03T23:42:29.481Z,19.00
2023-07-03T23:45:33.594Z,19.00
2023-07-03T23:48:37.498Z,19.00
2023-07-03T23:51:39.671Z,19.00
2023-07-03T23:54:41.743Z,18.90
2023-07-03T23:57:45.774Z,19.00
